sensor_id;sensor_type;location;lat;lon;timestamp;temperature;humidity
60242;SHT30;46103;52.076;113.488;2023-05-09T00:01:58;8.77;41.42
60242;SHT30;46103;52.076;113.488;2023-05-09T00:05:04;8.80;41.18
60242;SHT30;46103;52.076;113.488;2023-05-09T00:08:07;8.98;41.21
60242;SHT30;46103;52.076;113.488;2023-05-09T00:11:11;8.89;41.30
60242;SHT30;46103;52.076;113.488;2023-05-09T00:14:15;8.97;41.28
60242;SHT30;46103;52.076;113.488;2023-05-09T00:17:23;9.08;40.84
60242;SHT30;46103;52.076;113.488;2023-05-09T00:20:26;9.14;40.90
60242;SHT30;46103;52.076;113.488;2023-05-09T00:23:30;9.24;40.80
60242;SHT30;46103;52.076;113.488;2023-05-09T00:26:34;9.49;40.47
60242;SHT30;46103;52.076;113.488;2023-05-09T00:29:38;9.77;39.86
60242;SHT30;46103;52.076;113.488;2023-05-09T00:32:41;9.86;39.56
60242;SHT30;46103;52.076;113.488;2023-05-09T00:35:46;10.14;39.23
60242;SHT30;46103;52.076;113.488;2023-05-09T00:38:50;10.44;38.58
60242;SHT30;46103;52.076;113.488;2023-05-09T00:41:56;10.72;37.89
60242;SHT30;46103;52.076;113.488;2023-05-09T00:45:03;10.63;38.14
60242;SHT30;46103;52.076;113.488;2023-05-09T00:48:07;11.00;37.58
60242;SHT30;46103;52.076;113.488;2023-05-09T00:51:11;11.30;36.85
60242;SHT30;46103;52.076;113.488;2023-05-09T00:54:14;11.32;36.78
60242;SHT30;46103;52.076;113.488;2023-05-09T00:57:18;11.52;36.49
60242;SHT30;46103;52.076;113.488;2023-05-09T01:00:22;11.79;35.83
60242;SHT30;46103;52.076;113.488;2023-05-09T01:03:26;12.01;35.45
60242;SHT30;46103;52.076;113.488;2023-05-09T01:10:34;12.51;34.45
60242;SHT30;46103;52.076;113.488;2023-05-09T01:13:51;12.72;33.83
60242;SHT30;46103;52.076;113.488;2023-05-09T01:20:31;13.09;33.54
60242;SHT30;46103;52.076;113.488;2023-05-09T01:30:58;13.46;33.12
60242;SHT30;46103;52.076;113.488;2023-05-09T01:34:03;13.65;32.89
60242;SHT30;46103;52.076;113.488;2023-05-09T01:37:08;13.74;32.80
60242;SHT30;46103;52.076;113.488;2023-05-09T01:40:14;13.78;32.93
60242;SHT30;46103;52.076;113.488;2023-05-09T01:43:20;14.16;32.32
60242;SHT30;46103;52.076;113.488;2023-05-09T01:46:26;14.44;31.67
60242;SHT30;46103;52.076;113.488;2023-05-09T01:49:32;14.31;31.76
60242;SHT30;46103;52.076;113.488;2023-05-09T01:52:38;14.48;31.25
60242;SHT30;46103;52.076;113.488;2023-05-09T01:55:42;14.34;31.83
60242;SHT30;46103;52.076;113.488;2023-05-09T01:58:49;14.57;31.61
60242;SHT30;46103;52.076;113.488;2023-05-09T02:01:54;14.74;31.18
60242;SHT30;46103;52.076;113.488;2023-05-09T02:04:59;15.13;30.60
60242;SHT30;46103;52.076;113.488;2023-05-09T02:08:05;15.46;30.05
60242;SHT30;46103;52.076;113.488;2023-05-09T02:11:09;15.68;29.57
60242;SHT30;46103;52.076;113.488;2023-05-09T02:14:13;15.84;29.41
60242;SHT30;46103;52.076;113.488;2023-05-09T02:17:16;16.01;29.17
60242;SHT30;46103;52.076;113.488;2023-05-09T02:20:21;16.16;28.76
60242;SHT30;46103;52.076;113.488;2023-05-09T02:23:25;16.16;28.54
60242;SHT30;46103;52.076;113.488;2023-05-09T02:26:29;16.36;28.39
60242;SHT30;46103;52.076;113.488;2023-05-09T02:29:36;16.52;28.34
60242;SHT30;46103;52.076;113.488;2023-05-09T02:32:46;16.46;28.58
60242;SHT30;46103;52.076;113.488;2023-05-09T02:35:54;16.46;28.56
60242;SHT30;46103;52.076;113.488;2023-05-09T02:38:59;16.61;28.72
60242;SHT30;46103;52.076;113.488;2023-05-09T02:42:12;16.67;28.24
60242;SHT30;46103;52.076;113.488;2023-05-09T02:45:16;16.75;28.38
60242;SHT30;46103;52.076;113.488;2023-05-09T02:48:20;16.91;27.85
60242;SHT30;46103;52.076;113.488;2023-05-09T02:51:23;17.14;27.65
60242;SHT30;46103;52.076;113.488;2023-05-09T02:54:27;17.25;27.59
60242;SHT30;46103;52.076;113.488;2023-05-09T02:57:31;17.38;27.40
60242;SHT30;46103;52.076;113.488;2023-05-09T03:00:35;17.47;27.14
60242;SHT30;46103;52.076;113.488;2023-05-09T03:03:40;17.60;26.92
60242;SHT30;46103;52.076;113.488;2023-05-09T03:06:44;17.60;26.82
60242;SHT30;46103;52.076;113.488;2023-05-09T03:09:48;17.81;26.77
60242;SHT30;46103;52.076;113.488;2023-05-09T03:12:52;17.97;26.59
60242;SHT30;46103;52.076;113.488;2023-05-09T03:15:57;17.84;26.59
60242;SHT30;46103;52.076;113.488;2023-05-09T03:19:00;17.93;26.47
60242;SHT30;46103;52.076;113.488;2023-05-09T03:22:03;17.88;26.77
60242;SHT30;46103;52.076;113.488;2023-05-09T03:25:11;18.11;26.29
60242;SHT30;46103;52.076;113.488;2023-05-09T03:28:15;17.90;26.35
60242;SHT30;46103;52.076;113.488;2023-05-09T03:31:18;18.07;26.28
60242;SHT30;46103;52.076;113.488;2023-05-09T03:34:22;18.38;26.23
60242;SHT30;46103;52.076;113.488;2023-05-09T03:37:26;18.69;25.77
60242;SHT30;46103;52.076;113.488;2023-05-09T03:40:30;18.83;25.59
60242;SHT30;46103;52.076;113.488;2023-05-09T03:43:41;18.99;25.36
60242;SHT30;46103;52.076;113.488;2023-05-09T03:46:46;19.22;24.96
60242;SHT30;46103;52.076;113.488;2023-05-09T03:49:50;18.97;24.78
60242;SHT30;46103;52.076;113.488;2023-05-09T03:52:57;19.07;24.76
60242;SHT30;46103;52.076;113.488;2023-05-09T03:56:01;19.31;24.29
60242;SHT30;46103;52.076;113.488;2023-05-09T03:59:08;19.55;23.86
60242;SHT30;46103;52.076;113.488;2023-05-09T04:02:12;19.56;24.06
60242;SHT30;46103;52.076;113.488;2023-05-09T04:05:18;19.56;24.13
60242;SHT30;46103;52.076;113.488;2023-05-09T04:08:23;19.61;23.86
60242;SHT30;46103;52.076;113.488;2023-05-09T04:11:27;19.55;23.90
60242;SHT30;46103;52.076;113.488;2023-05-09T04:14:33;19.31;24.17
60242;SHT30;46103;52.076;113.488;2023-05-09T04:17:36;19.55;23.96
60242;SHT30;46103;52.076;113.488;2023-05-09T04:20:40;19.79;23.80
60242;SHT30;46103;52.076;113.488;2023-05-09T04:23:45;19.92;23.58
60242;SHT30;46103;52.076;113.488;2023-05-09T04:26:53;19.86;23.62
60242;SHT30;46103;52.076;113.488;2023-05-09T04:30:00;20.06;23.45
60242;SHT30;46103;52.076;113.488;2023-05-09T04:33:04;20.25;23.45
60242;SHT30;46103;52.076;113.488;2023-05-09T04:36:08;20.51;23.07
60242;SHT30;46103;52.076;113.488;2023-05-09T04:39:13;20.65;22.92
60242;SHT30;46103;52.076;113.488;2023-05-09T04:42:26;20.52;22.86
60242;SHT30;46103;52.076;113.488;2023-05-09T04:45:30;20.66;22.72
60242;SHT30;46103;52.076;113.488;2023-05-09T04:48:35;20.79;22.64
60242;SHT30;46103;52.076;113.488;2023-05-09T04:51:39;20.93;22.56
60242;SHT30;46103;52.076;113.488;2023-05-09T04:54:43;21.08;22.49
60242;SHT30;46103;52.076;113.488;2023-05-09T04:57:49;21.22;22.35
60242;SHT30;46103;52.076;113.488;2023-05-09T05:00:53;21.35;22.38
60242;SHT30;46103;52.076;113.488;2023-05-09T05:03:57;21.58;22.21
60242;SHT30;46103;52.076;113.488;2023-05-09T05:07:04;21.77;22.11
60242;SHT30;46103;52.076;113.488;2023-05-09T05:10:09;21.89;22.10
60242;SHT30;46103;52.076;113.488;2023-05-09T05:13:16;21.77;22.19
60242;SHT30;46103;52.076;113.488;2023-05-09T05:16:24;21.77;22.02
60242;SHT30;46103;52.076;113.488;2023-05-09T05:19:28;21.50;22.14
60242;SHT30;46103;52.076;113.488;2023-05-09T05:22:32;21.40;22.20
60242;SHT30;46103;52.076;113.488;2023-05-09T05:25:36;21.31;22.40
60242;SHT30;46103;52.076;113.488;2023-05-09T05:28:40;21.75;22.16
60242;SHT30;46103;52.076;113.488;2023-05-09T05:31:44;22.13;21.81
60242;SHT30;46103;52.076;113.488;2023-05-09T05:34:48;21.83;21.74
60242;SHT30;46103;52.076;113.488;2023-05-09T05:37:52;21.92;21.58
60242;SHT30;46103;52.076;113.488;2023-05-09T05:40:57;21.88;21.65
60242;SHT30;46103;52.076;113.488;2023-05-09T05:44:02;22.21;21.38
60242;SHT30;46103;52.076;113.488;2023-05-09T05:47:07;22.63;21.12
60242;SHT30;46103;52.076;113.488;2023-05-09T05:50:12;22.85;20.77
60242;SHT30;46103;52.076;113.488;2023-05-09T05:53:16;23.01;20.51
60242;SHT30;46103;52.076;113.488;2023-05-09T05:56:21;22.85;20.68
60242;SHT30;46103;52.076;113.488;2023-05-09T05:59:25;22.92;20.61
60242;SHT30;46103;52.076;113.488;2023-05-09T06:02:29;22.79;20.61
60242;SHT30;46103;52.076;113.488;2023-05-09T06:05:33;22.76;20.57
60242;SHT30;46103;52.076;113.488;2023-05-09T06:08:37;22.76;20.75
60242;SHT30;46103;52.076;113.488;2023-05-09T06:11:41;23.13;20.32
60242;SHT30;46103;52.076;113.488;2023-05-09T06:14:45;23.31;20.05
60242;SHT30;46103;52.076;113.488;2023-05-09T06:17:49;23.49;19.99
60242;SHT30;46103;52.076;113.488;2023-05-09T06:20:53;23.45;19.97
60242;SHT30;46103;52.076;113.488;2023-05-09T06:23:56;24.12;19.49
60242;SHT30;46103;52.076;113.488;2023-05-09T06:27:16;24.69;18.97
60242;SHT30;46103;52.076;113.488;2023-05-09T06:30:19;24.99;18.81
60242;SHT30;46103;52.076;113.488;2023-05-09T06:33:28;25.07;18.75
60242;SHT30;46103;52.076;113.488;2023-05-09T06:36:33;25.49;18.39
60242;SHT30;46103;52.076;113.488;2023-05-09T06:39:37;25.74;18.11
60242;SHT30;46103;52.076;113.488;2023-05-09T06:42:41;25.55;18.24
60242;SHT30;46103;52.076;113.488;2023-05-09T06:45:45;25.62;18.01
60242;SHT30;46103;52.076;113.488;2023-05-09T06:48:49;25.63;17.95
60242;SHT30;46103;52.076;113.488;2023-05-09T06:51:52;25.97;17.92
60242;SHT30;46103;52.076;113.488;2023-05-09T06:54:56;26.80;17.17
60242;SHT30;46103;52.076;113.488;2023-05-09T06:58:00;27.62;16.84
60242;SHT30;46103;52.076;113.488;2023-05-09T07:01:05;28.41;16.22
60242;SHT30;46103;52.076;113.488;2023-05-09T07:04:09;28.54;16.19
60242;SHT30;46103;52.076;113.488;2023-05-09T07:07:13;29.05;15.92
60242;SHT30;46103;52.076;113.488;2023-05-09T07:10:18;29.54;15.56
60242;SHT30;46103;52.076;113.488;2023-05-09T07:13:22;29.73;15.50
60242;SHT30;46103;52.076;113.488;2023-05-09T07:16:26;29.73;15.35
60242;SHT30;46103;52.076;113.488;2023-05-09T07:19:31;29.82;15.29
60242;SHT30;46103;52.076;113.488;2023-05-09T07:22:35;30.44;15.01
60242;SHT30;46103;52.076;113.488;2023-05-09T07:25:39;31.11;14.70
60242;SHT30;46103;52.076;113.488;2023-05-09T07:28:43;31.72;14.33
60242;SHT30;46103;52.076;113.488;2023-05-09T07:31:47;32.29;14.01
60242;SHT30;46103;52.076;113.488;2023-05-09T07:34:51;32.70;13.78
60242;SHT30;46103;52.076;113.488;2023-05-09T07:37:55;32.62;13.59
60242;SHT30;46103;52.076;113.488;2023-05-09T07:40:59;32.82;13.58
60242;SHT30;46103;52.076;113.488;2023-05-09T07:44:03;33.00;13.37
60242;SHT30;46103;52.076;113.488;2023-05-09T07:47:07;32.90;13.49
60242;SHT30;46103;52.076;113.488;2023-05-09T07:50:11;33.30;13.26
60242;SHT30;46103;52.076;113.488;2023-05-09T07:53:15;33.83;13.06
60242;SHT30;46103;52.076;113.488;2023-05-09T07:56:19;34.15;12.85
60242;SHT30;46103;52.076;113.488;2023-05-09T07:59:23;33.26;13.08
60242;SHT30;46103;52.076;113.488;2023-05-09T08:02:27;32.46;13.54
60242;SHT30;46103;52.076;113.488;2023-05-09T08:05:31;32.90;13.48
60242;SHT30;46103;52.076;113.488;2023-05-09T08:08:35;32.20;13.64
60242;SHT30;46103;52.076;113.488;2023-05-09T08:11:40;32.69;13.40
60242;SHT30;46103;52.076;113.488;2023-05-09T08:14:45;33.03;13.28
60242;SHT30;46103;52.076;113.488;2023-05-09T08:17:48;33.57;13.08
60242;SHT30;46103;52.076;113.488;2023-05-09T08:20:53;33.99;12.64
60242;SHT30;46103;52.076;113.488;2023-05-09T08:23:56;34.43;12.55
60242;SHT30;46103;52.076;113.488;2023-05-09T08:27:00;34.85;12.36
60242;SHT30;46103;52.076;113.488;2023-05-09T08:30:05;35.29;12.28
60242;SHT30;46103;52.076;113.488;2023-05-09T08:33:10;35.76;12.06
60242;SHT30;46103;52.076;113.488;2023-05-09T08:36:13;36.14;11.99
60242;SHT30;46103;52.076;113.488;2023-05-09T08:39:21;35.60;11.99
60242;SHT30;46103;52.076;113.488;2023-05-09T08:42:25;35.30;12.24
60242;SHT30;46103;52.076;113.488;2023-05-09T08:45:45;35.09;12.16
60242;SHT30;46103;52.076;113.488;2023-05-09T08:48:50;35.09;12.13
60242;SHT30;46103;52.076;113.488;2023-05-09T08:51:55;35.32;12.04
60242;SHT30;46103;52.076;113.488;2023-05-09T08:55:00;35.91;11.93
60242;SHT30;46103;52.076;113.488;2023-05-09T08:58:03;36.36;11.77
60242;SHT30;46103;52.076;113.488;2023-05-09T09:01:08;36.12;11.71
60242;SHT30;46103;52.076;113.488;2023-05-09T09:04:13;35.98;11.83
60242;SHT30;46103;52.076;113.488;2023-05-09T09:07:17;35.85;11.86
60242;SHT30;46103;52.076;113.488;2023-05-09T09:10:22;36.20;11.50
60242;SHT30;46103;52.076;113.488;2023-05-09T09:13:28;36.24;11.40
60242;SHT30;46103;52.076;113.488;2023-05-09T09:16:33;36.53;11.33
60242;SHT30;46103;52.076;113.488;2023-05-09T09:19:39;36.45;11.58
60242;SHT30;46103;52.076;113.488;2023-05-09T09:22:46;36.02;11.59
60242;SHT30;46103;52.076;113.488;2023-05-09T09:26:08;35.56;11.83
60242;SHT30;46103;52.076;113.488;2023-05-09T09:29:13;35.74;14.22
60242;SHT30;46103;52.076;113.488;2023-05-09T09:32:17;35.73;11.86
60242;SHT30;46103;52.076;113.488;2023-05-09T09:35:21;35.54;11.84
60242;SHT30;46103;52.076;113.488;2023-05-09T09:38:26;34.33;12.06
60242;SHT30;46103;52.076;113.488;2023-05-09T09:41:36;33.65;12.44
60242;SHT30;46103;52.076;113.488;2023-05-09T09:44:41;33.11;12.75
60242;SHT30;46103;52.076;113.488;2023-05-09T09:47:46;32.87;12.87
60242;SHT30;46103;52.076;113.488;2023-05-09T09:50:50;32.49;13.12
60242;SHT30;46103;52.076;113.488;2023-05-09T09:53:53;32.58;13.01
60242;SHT30;46103;52.076;113.488;2023-05-09T09:56:58;32.41;13.09
60242;SHT30;46103;52.076;113.488;2023-05-09T10:00:04;32.91;12.87
60242;SHT30;46103;52.076;113.488;2023-05-09T10:03:13;32.90;12.90
60242;SHT30;46103;52.076;113.488;2023-05-09T10:06:19;33.16;12.84
60242;SHT30;46103;52.076;113.488;2023-05-09T10:09:23;32.96;12.96
60242;SHT30;46103;52.076;113.488;2023-05-09T10:12:27;33.07;12.86
60242;SHT30;46103;52.076;113.488;2023-05-09T10:15:31;32.36;13.22
60242;SHT30;46103;52.076;113.488;2023-05-09T10:18:54;31.76;13.42
60242;SHT30;46103;52.076;113.488;2023-05-09T10:22:02;31.59;13.35
60242;SHT30;46103;52.076;113.488;2023-05-09T10:25:13;30.96;13.58
60242;SHT30;46103;52.076;113.488;2023-05-09T10:28:20;30.37;13.91
60242;SHT30;46103;52.076;113.488;2023-05-09T10:31:26;30.08;14.10
60242;SHT30;46103;52.076;113.488;2023-05-09T10:34:32;30.13;14.19
60242;SHT30;46103;52.076;113.488;2023-05-09T10:37:37;30.12;14.21
60242;SHT30;46103;52.076;113.488;2023-05-09T10:40:42;29.84;14.42
60242;SHT30;46103;52.076;113.488;2023-05-09T10:43:49;29.43;14.51
60242;SHT30;46103;52.076;113.488;2023-05-09T10:46:53;29.13;14.57
60242;SHT30;46103;52.076;113.488;2023-05-09T10:49:58;28.69;14.94
60242;SHT30;46103;52.076;113.488;2023-05-09T10:56:32;27.61;15.46
60242;SHT30;46103;52.076;113.488;2023-05-09T10:59:40;27.04;15.93
60242;SHT30;46103;52.076;113.488;2023-05-09T11:03:05;26.79;16.28
60242;SHT30;46103;52.076;113.488;2023-05-09T11:06:49;26.32;16.57
60242;SHT30;46103;52.076;113.488;2023-05-09T11:10:16;25.93;16.76
60242;SHT30;46103;52.076;113.488;2023-05-09T11:13:21;25.53;16.96
60242;SHT30;46103;52.076;113.488;2023-05-09T11:16:26;25.17;17.25
60242;SHT30;46103;52.076;113.488;2023-05-09T11:22:52;24.46;17.94
60242;SHT30;46103;52.076;113.488;2023-05-09T11:26:05;23.97;18.21
60242;SHT30;46103;52.076;113.488;2023-05-09T11:29:08;23.46;18.68
60242;SHT30;46103;52.076;113.488;2023-05-09T11:32:15;23.12;19.04
60242;SHT30;46103;52.076;113.488;2023-05-09T11:35:21;22.75;19.16
60242;SHT30;46103;52.076;113.488;2023-05-09T11:38:24;22.44;19.73
60242;SHT30;46103;52.076;113.488;2023-05-09T11:41:28;22.09;20.12
60242;SHT30;46103;52.076;113.488;2023-05-09T11:44:33;21.77;20.50
60242;SHT30;46103;52.076;113.488;2023-05-09T11:47:38;21.50;20.75
60242;SHT30;46103;52.076;113.488;2023-05-09T11:50:46;21.11;21.44
60242;SHT30;46103;52.076;113.488;2023-05-09T11:53:49;20.75;21.87
60242;SHT30;46103;52.076;113.488;2023-05-09T11:56:53;20.42;22.15
60242;SHT30;46103;52.076;113.488;2023-05-09T11:59:58;20.16;22.18
60242;SHT30;46103;52.076;113.488;2023-05-09T12:03:05;19.92;22.83
60242;SHT30;46103;52.076;113.488;2023-05-09T12:06:14;19.69;22.58
60242;SHT30;46103;52.076;113.488;2023-05-09T12:09:19;19.48;23.70
60242;SHT30;46103;52.076;113.488;2023-05-09T12:12:23;19.29;24.31
60242;SHT30;46103;52.076;113.488;2023-05-09T12:15:27;19.15;23.67
60242;SHT30;46103;52.076;113.488;2023-05-09T12:18:31;18.93;23.46
60242;SHT30;46103;52.076;113.488;2023-05-09T12:21:36;18.79;23.37
60242;SHT30;46103;52.076;113.488;2023-05-09T12:24:42;18.67;23.35
60242;SHT30;46103;52.076;113.488;2023-05-09T12:27:45;18.55;24.63
60242;SHT30;46103;52.076;113.488;2023-05-09T12:30:49;18.39;24.29
60242;SHT30;46103;52.076;113.488;2023-05-09T12:33:53;18.02;24.94
60242;SHT30;46103;52.076;113.488;2023-05-09T12:36:56;17.83;25.16
60242;SHT30;46103;52.076;113.488;2023-05-09T12:43:07;17.62;25.63
60242;SHT30;46103;52.076;113.488;2023-05-09T12:46:11;17.54;25.72
60242;SHT30;46103;52.076;113.488;2023-05-09T12:49:19;17.40;25.77
60242;SHT30;46103;52.076;113.488;2023-05-09T12:52:24;17.39;25.79
60242;SHT30;46103;52.076;113.488;2023-05-09T12:55:29;17.35;26.02
60242;SHT30;46103;52.076;113.488;2023-05-09T12:58:33;17.28;26.00
60242;SHT30;46103;52.076;113.488;2023-05-09T13:01:38;17.18;26.30
60242;SHT30;46103;52.076;113.488;2023-05-09T13:04:42;17.12;25.95
60242;SHT30;46103;52.076;113.488;2023-05-09T13:07:56;17.02;26.11
60242;SHT30;46103;52.076;113.488;2023-05-09T13:11:00;16.98;26.23
60242;SHT30;46103;52.076;113.488;2023-05-09T13:14:18;16.88;26.31
60242;SHT30;46103;52.076;113.488;2023-05-09T13:17:23;16.80;26.31
60242;SHT30;46103;52.076;113.488;2023-05-09T13:20:27;16.70;26.62
60242;SHT30;46103;52.076;113.488;2023-05-09T13:23:31;16.60;26.85
60242;SHT30;46103;52.076;113.488;2023-05-09T13:26:35;16.50;27.15
60242;SHT30;46103;52.076;113.488;2023-05-09T13:29:39;16.43;27.51
60242;SHT30;46103;52.076;113.488;2023-05-09T13:32:45;16.33;27.77
60242;SHT30;46103;52.076;113.488;2023-05-09T13:35:59;16.23;27.96
60242;SHT30;46103;52.076;113.488;2023-05-09T13:39:03;16.18;27.89
60242;SHT30;46103;52.076;113.488;2023-05-09T13:42:07;16.13;28.02
60242;SHT30;46103;52.076;113.488;2023-05-09T13:45:10;16.05;28.19
60242;SHT30;46103;52.076;113.488;2023-05-09T13:48:14;15.98;28.25
60242;SHT30;46103;52.076;113.488;2023-05-09T13:51:17;15.82;28.25
60242;SHT30;46103;52.076;113.488;2023-05-09T13:54:23;15.68;28.35
60242;SHT30;46103;52.076;113.488;2023-05-09T13:57:27;15.51;28.19
60242;SHT30;46103;52.076;113.488;2023-05-09T14:00:31;15.43;28.26
60242;SHT30;46103;52.076;113.488;2023-05-09T14:03:35;15.32;28.33
60242;SHT30;46103;52.076;113.488;2023-05-09T14:06:39;15.22;28.71
60242;SHT30;46103;52.076;113.488;2023-05-09T14:09:49;15.13;28.66
60242;SHT30;46103;52.076;113.488;2023-05-09T14:13:02;15.05;28.55
60242;SHT30;46103;52.076;113.488;2023-05-09T14:16:06;14.99;28.52
60242;SHT30;46103;52.076;113.488;2023-05-09T14:19:11;14.89;28.61
60242;SHT30;46103;52.076;113.488;2023-05-09T14:22:16;14.81;28.61
60242;SHT30;46103;52.076;113.488;2023-05-09T14:25:20;14.77;28.82
60242;SHT30;46103;52.076;113.488;2023-05-09T14:28:25;14.71;28.89
60242;SHT30;46103;52.076;113.488;2023-05-09T14:31:28;14.69;29.10
60242;SHT30;46103;52.076;113.488;2023-05-09T14:34:32;14.64;28.60
60242;SHT30;46103;52.076;113.488;2023-05-09T14:37:35;14.61;29.04
60242;SHT30;46103;52.076;113.488;2023-05-09T14:40:39;14.44;29.37
60242;SHT30;46103;52.076;113.488;2023-05-09T14:43:42;14.26;29.53
60242;SHT30;46103;52.076;113.488;2023-05-09T14:46:45;14.14;30.07
60242;SHT30;46103;52.076;113.488;2023-05-09T14:49:50;13.96;30.49
60242;SHT30;46103;52.076;113.488;2023-05-09T14:52:54;13.79;31.64
60242;SHT30;46103;52.076;113.488;2023-05-09T14:55:57;13.72;31.89
60242;SHT30;46103;52.076;113.488;2023-05-09T14:59:01;13.65;33.07
60242;SHT30;46103;52.076;113.488;2023-05-09T15:02:05;13.51;33.11
60242;SHT30;46103;52.076;113.488;2023-05-09T15:05:09;13.41;32.42
60242;SHT30;46103;52.076;113.488;2023-05-09T15:08:12;13.26;32.71
60242;SHT30;46103;52.076;113.488;2023-05-09T15:11:17;13.16;33.70
60242;SHT30;46103;52.076;113.488;2023-05-09T15:14:20;13.06;33.56
60242;SHT30;46103;52.076;113.488;2023-05-09T15:17:23;12.99;33.61
60242;SHT30;46103;52.076;113.488;2023-05-09T15:20:27;12.85;33.85
60242;SHT30;46103;52.076;113.488;2023-05-09T15:23:30;12.79;33.76
60242;SHT30;46103;52.076;113.488;2023-05-09T15:26:34;12.68;33.46
60242;SHT30;46103;52.076;113.488;2023-05-09T15:29:38;12.59;33.68
60242;SHT30;46103;52.076;113.488;2023-05-09T15:32:43;12.49;33.86
60242;SHT30;46103;52.076;113.488;2023-05-09T15:35:46;12.41;33.96
60242;SHT30;46103;52.076;113.488;2023-05-09T15:38:51;12.31;33.94
60242;SHT30;46103;52.076;113.488;2023-05-09T15:41:54;12.23;33.95
60242;SHT30;46103;52.076;113.488;2023-05-09T15:44:58;12.16;34.26
60242;SHT30;46103;52.076;113.488;2023-05-09T15:48:01;12.08;34.56
60242;SHT30;46103;52.076;113.488;2023-05-09T15:51:05;12.00;34.40
60242;SHT30;46103;52.076;113.488;2023-05-09T15:54:08;11.91;34.87
60242;SHT30;46103;52.076;113.488;2023-05-09T15:57:12;11.96;36.46
60242;SHT30;46103;52.076;113.488;2023-05-09T16:00:16;11.97;36.03
60242;SHT30;46103;52.076;113.488;2023-05-09T16:03:20;11.90;34.82
60242;SHT30;46103;52.076;113.488;2023-05-09T16:06:26;11.75;34.82
60242;SHT30;46103;52.076;113.488;2023-05-09T16:09:30;11.63;35.18
60242;SHT30;46103;52.076;113.488;2023-05-09T16:12:35;11.52;35.56
60242;SHT30;46103;52.076;113.488;2023-05-09T16:15:38;11.25;36.35
60242;SHT30;46103;52.076;113.488;2023-05-09T16:18:43;11.07;36.78
60242;SHT30;46103;52.076;113.488;2023-05-09T16:21:47;10.86;37.08
60242;SHT30;46103;52.076;113.488;2023-05-09T16:24:51;10.67;37.74
60242;SHT30;46103;52.076;113.488;2023-05-09T16:27:54;10.56;38.00
60242;SHT30;46103;52.076;113.488;2023-05-09T16:30:58;10.44;38.30
60242;SHT30;46103;52.076;113.488;2023-05-09T16:34:07;10.29;38.56
60242;SHT30;46103;52.076;113.488;2023-05-09T16:37:10;10.15;38.77
60242;SHT30;46103;52.076;113.488;2023-05-09T16:40:13;10.12;38.85
60242;SHT30;46103;52.076;113.488;2023-05-09T16:43:17;10.05;38.81
60242;SHT30;46103;52.076;113.488;2023-05-09T16:46:22;10.04;38.85
60242;SHT30;46103;52.076;113.488;2023-05-09T16:49:26;9.98;38.92
60242;SHT30;46103;52.076;113.488;2023-05-09T16:52:30;9.95;38.83
60242;SHT30;46103;52.076;113.488;2023-05-09T16:55:34;9.89;38.85
60242;SHT30;46103;52.076;113.488;2023-05-09T16:58:37;9.81;38.87
60242;SHT30;46103;52.076;113.488;2023-05-09T17:01:42;9.77;39.20
60242;SHT30;46103;52.076;113.488;2023-05-09T17:04:45;9.70;39.18
60242;SHT30;46103;52.076;113.488;2023-05-09T17:07:49;9.62;39.09
60242;SHT30;46103;52.076;113.488;2023-05-09T17:10:53;9.60;39.01
60242;SHT30;46103;52.076;113.488;2023-05-09T17:13:57;9.54;39.18
60242;SHT30;46103;52.076;113.488;2023-05-09T17:17:00;9.52;39.35
60242;SHT30;46103;52.076;113.488;2023-05-09T17:20:05;9.45;39.58
60242;SHT30;46103;52.076;113.488;2023-05-09T17:23:09;9.43;39.72
60242;SHT30;46103;52.076;113.488;2023-05-09T17:26:13;9.39;39.70
60242;SHT30;46103;52.076;113.488;2023-05-09T17:29:17;9.32;40.16
60242;SHT30;46103;52.076;113.488;2023-05-09T17:32:20;9.21;40.54
60242;SHT30;46103;52.076;113.488;2023-05-09T17:35:24;9.14;40.68
60242;SHT30;46103;52.076;113.488;2023-05-09T17:38:28;9.05;40.92
60242;SHT30;46103;52.076;113.488;2023-05-09T17:41:32;8.96;41.14
60242;SHT30;46103;52.076;113.488;2023-05-09T17:44:36;8.91;41.21
60242;SHT30;46103;52.076;113.488;2023-05-09T17:47:40;8.83;41.57
60242;SHT30;46103;52.076;113.488;2023-05-09T17:50:45;8.76;41.62
60242;SHT30;46103;52.076;113.488;2023-05-09T17:53:49;8.69;41.87
60242;SHT30;46103;52.076;113.488;2023-05-09T17:56:55;8.63;41.93
60242;SHT30;46103;52.076;113.488;2023-05-09T18:00:03;8.57;41.92
60242;SHT30;46103;52.076;113.488;2023-05-09T18:03:19;8.53;42.03
60242;SHT30;46103;52.076;113.488;2023-05-09T18:06:22;8.48;42.03
60242;SHT30;46103;52.076;113.488;2023-05-09T18:09:25;8.45;42.23
60242;SHT30;46103;52.076;113.488;2023-05-09T18:12:28;8.39;42.33
60242;SHT30;46103;52.076;113.488;2023-05-09T18:15:33;8.33;42.63
60242;SHT30;46103;52.076;113.488;2023-05-09T18:18:40;8.21;42.82
60242;SHT30;46103;52.076;113.488;2023-05-09T18:21:44;8.19;42.74
60242;SHT30;46103;52.076;113.488;2023-05-09T18:24:48;8.12;42.78
60242;SHT30;46103;52.076;113.488;2023-05-09T18:27:51;8.06;43.02
60242;SHT30;46103;52.076;113.488;2023-05-09T18:30:59;7.94;43.05
60242;SHT30;46103;52.076;113.488;2023-05-09T18:34:03;7.93;43.16
60242;SHT30;46103;52.076;113.488;2023-05-09T18:37:08;7.84;43.27
60242;SHT30;46103;52.076;113.488;2023-05-09T18:40:12;7.78;43.31
60242;SHT30;46103;52.076;113.488;2023-05-09T18:43:18;7.73;43.49
60242;SHT30;46103;52.076;113.488;2023-05-09T18:46:24;7.71;43.41
60242;SHT30;46103;52.076;113.488;2023-05-09T18:49:29;7.67;43.74
60242;SHT30;46103;52.076;113.488;2023-05-09T18:52:33;7.63;44.19
60242;SHT30;46103;52.076;113.488;2023-05-09T18:55:37;7.57;44.28
60242;SHT30;46103;52.076;113.488;2023-05-09T18:58:41;7.53;44.65
60242;SHT30;46103;52.076;113.488;2023-05-09T19:01:45;7.42;45.15
60242;SHT30;46103;52.076;113.488;2023-05-09T19:04:48;7.32;45.21
60242;SHT30;46103;52.076;113.488;2023-05-09T19:07:53;7.26;45.38
60242;SHT30;46103;52.076;113.488;2023-05-09T19:10:57;7.28;45.36
60242;SHT30;46103;52.076;113.488;2023-05-09T19:14:01;7.20;45.40
60242;SHT30;46103;52.076;113.488;2023-05-09T19:17:05;7.19;45.41
60242;SHT30;46103;52.076;113.488;2023-05-09T19:20:09;7.09;45.61
60242;SHT30;46103;52.076;113.488;2023-05-09T19:23:13;7.01;45.73